Terminal Aerodrome Forecast
Issued by NWS

Home | Current Version | Previous Version | Text Only | Print | Product List | Glossary On
Versions: 1 2 3 4 5 6 7 8 9 10 11 12 13
981
FTPA31 PHFO 170106 AAA
TAFHJH
TAF AMD
PHJH 170106Z 1701/1724 05011KT P6SM FEW035
     FM171200 08005KT P6SM FEW035
     FM172100 05011KT P6SM FEW035=

USA.gov is the U.S. government's official web portal to all federal, state and local government web resources and services.